Ellsworth AFB, South Dakota
Current Conditions -  °F | °C
As of 8:58 PM on Tuesday 21 Oct 2014 (Local Time) from KRCA Reporting Station
Clear Clear  
Wind Chill: 63°   Ceiling: Unl
Heat Index: 63°   Visibility: 10mi
Dew Point: 44°   Wind: 7mph
Humidity: 49%   Direction: 230°SW
Pressure: 29.76"   Gusts: NA
Location:  44.14°N, 103.07°W
Report Text: KRCA 220258Z 23006KT 10SM CLR 17/07 A2976 RMK AO2A SLP068 T01730065 52010 $
Loading
Personal Weather Stations






























Interactive Weather Map
Tropical Storm Tracking
New forecast layout! Learn more

10-Day Weather Forecast

Advertisements
Track Severe Weather on mobile